createdAt,value
2019-02-19T00:02:06.015Z,12.93
2019-02-19T00:04:53.447Z,14.43
2019-02-19T00:07:40.675Z,12.57
2019-02-19T00:10:28.389Z,12.07
2019-02-19T00:13:15.917Z,11.90
2019-02-19T00:16:04.363Z,13.17
2019-02-19T00:18:51.791Z,13.57
2019-02-19T00:21:39.110Z,10.93
2019-02-19T00:24:27.045Z,11.67
2019-02-19T00:27:14.722Z,11.93
2019-02-19T00:30:02.201Z,11.37
2019-02-19T00:32:49.728Z,11.90
2019-02-19T00:35:36.844Z,9.73
2019-02-19T00:38:24.473Z,9.90
2019-02-19T00:41:12.215Z,11.13
2019-02-19T00:43:59.940Z,11.33
2019-02-19T00:46:47.567Z,11.20
2019-02-19T00:49:36.220Z,10.20
2019-02-19T00:52:23.850Z,11.03
2019-02-19T00:55:11.783Z,11.40
2019-02-19T00:57:59.219Z,13.17
2019-02-19T01:00:46.837Z,11.90
2019-02-19T01:03:34.469Z,9.63
2019-02-19T01:06:22.099Z,9.83
2019-02-19T01:09:10.150Z,10.30
2019-02-19T01:11:57.660Z,12.47
2019-02-19T01:14:45.506Z,11.93
2019-02-19T01:17:32.508Z,12.83
2019-02-19T01:20:19.824Z,13.73
2019-02-19T01:23:06.939Z,12.97
2019-02-19T01:25:54.570Z,12.80
2019-02-19T01:28:41.889Z,11.77
2019-02-19T01:31:29.313Z,12.03
2019-02-19T01:34:17.237Z,12.60
2019-02-19T01:37:04.777Z,14.53
2019-02-19T01:39:52.303Z,12.03
2019-02-19T01:42:39.932Z,12.20
2019-02-19T01:45:33.910Z,9.03
2019-02-19T01:48:16.630Z,11.43
2019-02-19T01:51:04.258Z,11.60
2019-02-19T01:53:51.676Z,9.67
2019-02-19T01:56:41.744Z,10.80
2019-02-19T01:59:28.372Z,11.03
2019-02-19T02:02:15.894Z,10.43
2019-02-19T02:05:03.522Z,9.97
2019-02-19T02:07:50.846Z,10.73
2019-02-19T02:10:38.472Z,8.77
2019-02-19T02:13:26.306Z,8.03
2019-02-19T02:16:13.943Z,10.13
2019-02-19T02:19:01.886Z,9.50
2019-02-19T02:21:49.502Z,9.80
2019-02-19T02:24:37.237Z,10.80
2019-02-19T02:27:24.655Z,8.83
2019-02-19T02:30:11.987Z,9.10
2019-02-19T02:32:59.611Z,9.53
2019-02-19T02:35:47.550Z,11.33
2019-02-19T02:38:35.175Z,10.27
2019-02-19T02:41:23.018Z,10.20
2019-02-19T02:44:10.127Z,10.50
2019-02-19T02:46:57.856Z,9.17
2019-02-19T02:49:45.278Z,8.37
2019-02-19T02:52:32.627Z,8.20
2019-02-19T02:55:20.334Z,8.97
2019-02-19T02:58:07.960Z,9.33
2019-02-19T03:00:55.104Z,8.80
2019-02-19T03:03:42.501Z,7.73
2019-02-19T03:06:40.368Z,8.20
2019-02-19T03:09:27.580Z,10.00
2019-02-19T03:12:14.813Z,8.00
2019-02-19T03:15:02.341Z,7.67
2019-02-19T03:17:49.665Z,7.87
2019-02-19T03:20:37.081Z,8.47
2019-02-19T03:23:24.199Z,8.13
2019-02-19T03:26:12.032Z,8.57
2019-02-19T03:28:59.765Z,8.57
2019-02-19T03:31:47.292Z,8.03
2019-02-19T03:34:34.919Z,6.83
2019-02-19T03:37:22.035Z,8.90
2019-02-19T03:40:09.565Z,8.57
2019-02-19T03:42:57.096Z,6.90
2019-02-19T03:45:44.923Z,8.60
2019-02-19T03:48:32.038Z,8.20
2019-02-19T03:51:19.465Z,7.47
2019-02-19T03:54:06.989Z,6.90
2019-02-19T03:56:54.255Z,7.67
2019-02-19T03:59:41.736Z,6.87
2019-02-19T04:02:28.854Z,8.47
2019-02-19T04:05:16.670Z,10.17
2019-02-19T04:08:03.925Z,7.90
2019-02-19T04:10:51.229Z,7.20
2019-02-19T04:13:38.874Z,7.47
2019-02-19T04:16:26.180Z,7.03
2019-02-19T04:19:14.833Z,7.00
2019-02-19T04:22:01.949Z,7.33
2019-02-19T04:24:49.884Z,7.10
2019-02-19T04:27:37.211Z,7.40
2019-02-19T04:30:24.956Z,6.67
2019-02-19T04:33:12.463Z,7.37
2019-02-19T04:36:00.502Z,9.07
2019-02-19T04:38:47.724Z,11.47
2019-02-19T04:41:34.739Z,10.30
2019-02-19T04:44:21.957Z,11.17
2019-02-19T04:47:09.276Z,7.97
2019-02-19T04:49:56.601Z,10.83
2019-02-19T04:52:44.332Z,10.53
2019-02-19T04:55:31.858Z,10.83
2019-02-19T04:58:19.392Z,9.73
2019-02-19T05:01:07.216Z,9.63
2019-02-19T05:03:54.435Z,8.23
2019-02-19T05:06:43.601Z,7.07
2019-02-19T05:09:30.925Z,9.57
2019-02-19T05:12:18.348Z,7.00
2019-02-19T05:15:11.198Z,8.33
2019-02-19T05:17:58.689Z,7.30
2019-02-19T05:20:46.253Z,7.10
2019-02-19T05:23:33.552Z,7.37
2019-02-19T05:26:21.312Z,7.73
2019-02-19T05:29:08.625Z,7.57
2019-02-19T05:31:55.947Z,8.13
2019-02-19T05:34:43.475Z,8.53
2019-02-19T05:37:30.796Z,8.60
2019-02-19T05:40:18.853Z,7.03
2019-02-19T05:43:07.388Z,10.13
2019-02-19T05:45:55.021Z,8.00
2019-02-19T05:48:42.643Z,8.73
2019-02-19T05:51:30.176Z,7.23
2019-02-19T05:54:18.023Z,8.53
2019-02-19T05:57:05.499Z,8.93
2019-02-19T05:59:52.753Z,8.67
2019-02-19T06:02:40.282Z,8.97
2019-02-19T06:05:28.006Z,9.77
2019-02-19T06:08:15.624Z,9.03
2019-02-19T06:11:03.167Z,9.23
2019-02-19T06:13:50.382Z,9.23
2019-02-19T06:16:37.717Z,9.63
2019-02-19T06:19:24.923Z,8.63
2019-02-19T06:22:12.893Z,11.57
2019-02-19T06:24:59.846Z,12.40
2019-02-19T06:27:47.501Z,10.97
2019-02-19T06:30:35.869Z,11.33
2019-02-19T06:33:22.968Z,12.70
2019-02-19T06:36:10.799Z,12.07
2019-02-19T06:38:58.128Z,11.10
2019-02-19T06:41:46.054Z,9.53
2019-02-19T06:44:33.517Z,11.17
2019-02-19T06:47:20.781Z,9.27
2019-02-19T06:50:08.543Z,7.63
2019-02-19T06:52:55.685Z,10.67
2019-02-19T06:55:44.974Z,9.40
2019-02-19T06:58:32.353Z,9.83
2019-02-19T07:01:21.712Z,9.10
2019-02-19T07:04:16.525Z,9.30
2019-02-19T07:07:03.521Z,8.90
2019-02-19T07:09:51.149Z,8.17
2019-02-19T07:12:38.596Z,9.20
2019-02-19T07:15:25.803Z,8.77
2019-02-19T07:18:13.640Z,8.33
2019-02-19T07:21:01.018Z,12.50
2019-02-19T07:23:48.784Z,8.73
2019-02-19T07:26:36.927Z,11.00
2019-02-19T07:29:26.520Z,9.47
2019-02-19T07:36:46.718Z,11.17
2019-02-19T07:39:35.611Z,10.13
2019-02-19T07:42:23.016Z,10.73
2019-02-19T07:45:16.887Z,10.67
2019-02-19T07:48:05.935Z,9.33
2019-02-19T07:50:53.602Z,9.27
2019-02-19T07:53:42.225Z,9.83
2019-02-19T07:56:29.989Z,9.50
2019-02-19T07:59:17.785Z,11.20
2019-02-19T08:02:05.332Z,8.57
2019-02-19T08:04:52.868Z,7.90
2019-02-19T08:07:40.362Z,9.37
2019-02-19T08:10:28.915Z,10.03
2019-02-19T08:13:16.441Z,9.53
2019-02-19T08:16:04.067Z,9.53
2019-02-19T08:18:51.185Z,10.90
2019-02-19T08:21:39.022Z,8.97
2019-02-19T08:24:26.289Z,8.87
2019-02-19T08:27:14.279Z,10.47
2019-02-19T08:30:02.022Z,9.23
2019-02-19T08:32:49.433Z,10.43
2019-02-19T08:35:36.974Z,9.13
2019-02-19T08:38:24.278Z,9.07
2019-02-19T08:41:11.503Z,10.00
2019-02-19T08:43:58.617Z,11.77
2019-02-19T08:46:46.142Z,12.30
2019-02-19T08:49:33.791Z,13.63
2019-02-19T08:52:30.515Z,12.27
2019-02-19T08:55:19.940Z,10.87
2019-02-19T08:58:10.383Z,10.67
2019-02-19T09:00:58.013Z,11.10
2019-02-19T09:03:45.744Z,11.53
2019-02-19T09:06:33.376Z,11.00
2019-02-19T09:09:20.997Z,9.70
2019-02-19T09:12:08.733Z,12.00
2019-02-19T09:14:56.365Z,11.33
2019-02-19T09:17:51.613Z,11.87
2019-02-19T09:20:32.684Z,10.07
2019-02-19T09:23:19.882Z,9.57
2019-02-19T09:26:07.802Z,12.27
2019-02-19T09:28:54.921Z,11.23
2019-02-19T09:31:42.130Z,10.17
2019-02-19T09:34:29.665Z,10.93
2019-02-19T09:37:17.941Z,11.60
2019-02-19T09:40:07.919Z,12.73
2019-02-19T09:42:56.538Z,13.60
2019-02-19T09:45:44.269Z,12.77
2019-02-19T09:48:31.810Z,13.23
2019-02-19T09:51:19.839Z,14.40
2019-02-19T09:54:07.672Z,12.60
2019-02-19T09:56:55.502Z,13.43
2019-02-19T09:59:43.131Z,13.30
2019-02-19T10:02:30.659Z,13.23
2019-02-19T10:05:18.181Z,13.43
2019-02-19T10:08:05.720Z,11.20
2019-02-19T10:10:53.653Z,12.87
2019-02-19T10:13:41.281Z,11.70
2019-02-19T10:16:28.804Z,12.80
2019-02-19T10:19:16.227Z,12.73
2019-02-19T10:22:03.854Z,11.27
2019-02-19T10:24:52.460Z,12.43
2019-02-19T10:27:39.831Z,11.83
2019-02-19T10:30:27.050Z,12.13
2019-02-19T10:33:13.962Z,12.87
2019-02-19T10:36:01.389Z,15.70
2019-02-19T10:38:48.501Z,13.40
2019-02-19T10:41:36.234Z,13.23
2019-02-19T10:44:23.263Z,15.23
2019-02-19T10:47:10.679Z,14.03
2019-02-19T10:49:58.201Z,14.97
2019-02-19T10:52:45.830Z,14.10
2019-02-19T10:55:33.051Z,14.43
2019-02-19T10:58:23.010Z,13.90
2019-02-19T11:01:09.841Z,15.07
2019-02-19T11:03:57.265Z,14.23
2019-02-19T11:06:44.697Z,15.13
2019-02-19T11:09:32.274Z,14.93
2019-02-19T11:12:19.853Z,16.23
2019-02-19T11:15:12.800Z,12.10
2019-02-19T11:18:00.538Z,12.70
2019-02-19T11:20:48.260Z,11.73
2019-02-19T11:23:35.686Z,12.17
2019-02-19T11:26:23.215Z,13.00
2019-02-19T11:29:10.639Z,14.30
2019-02-19T11:31:58.368Z,14.20
2019-02-19T11:34:45.881Z,14.47
2019-02-19T11:37:33.321Z,12.30
2019-02-19T11:40:20.748Z,12.63
2019-02-19T11:43:08.166Z,14.23
2019-02-19T11:45:55.898Z,14.63
2019-02-19T11:48:43.121Z,13.10
2019-02-19T11:51:30.748Z,13.53
2019-02-19T11:54:18.477Z,13.70
2019-02-19T11:57:06.213Z,13.13
2019-02-19T11:59:53.949Z,10.83
2019-02-19T12:02:41.472Z,13.07
2019-02-19T12:05:28.894Z,12.60
2019-02-19T12:08:16.631Z,10.80
2019-02-19T12:11:04.045Z,12.23
2019-02-19T12:13:51.674Z,12.43
2019-02-19T12:16:39.308Z,12.50
2019-02-19T12:19:26.844Z,11.53
2019-02-19T12:22:15.177Z,11.67
2019-02-19T12:25:02.908Z,10.67
2019-02-19T12:27:50.638Z,13.17
2019-02-19T12:30:38.083Z,11.77
2019-02-19T12:33:25.797Z,12.40
2019-02-19T12:36:14.658Z,11.67
2019-02-19T12:39:02.178Z,10.23
2019-02-19T12:41:49.707Z,13.83
2019-02-19T12:44:37.134Z,9.83
2019-02-19T12:47:24.657Z,10.13
2019-02-19T12:50:13.647Z,11.07
2019-02-19T12:53:00.731Z,10.90
2019-02-19T12:55:48.462Z,9.87
2019-02-19T12:58:36.298Z,8.97
2019-02-19T13:01:23.729Z,10.30
2019-02-19T13:04:11.359Z,9.77
2019-02-19T13:06:58.657Z,10.20
2019-02-19T13:09:46.307Z,9.50
2019-02-19T13:12:33.614Z,13.13
2019-02-19T13:15:24.438Z,10.67
2019-02-19T13:18:12.466Z,11.70
2019-02-19T13:21:00.095Z,8.30
2019-02-19T13:23:47.618Z,8.17
2019-02-19T13:26:35.144Z,9.87
2019-02-19T13:29:22.184Z,11.17
2019-02-19T13:32:09.687Z,11.20
2019-02-19T13:34:57.218Z,9.73
2019-02-19T13:37:44.642Z,10.17
2019-02-19T13:40:32.066Z,9.77
2019-02-19T13:43:19.605Z,11.67
2019-02-19T13:46:07.269Z,11.03
2019-02-19T13:48:54.677Z,12.37
2019-02-19T13:51:42.590Z,10.27
2019-02-19T13:54:30.414Z,10.43
2019-02-19T13:57:18.041Z,11.23
2019-02-19T14:00:07.165Z,9.80
2019-02-19T14:02:54.327Z,10.47
2019-02-19T14:05:41.955Z,10.50
2019-02-19T14:08:31.017Z,10.80
2019-02-19T14:11:18.437Z,12.80
2019-02-19T14:14:16.411Z,11.80
2019-02-19T14:17:03.602Z,11.67
2019-02-19T14:19:52.698Z,11.40
2019-02-19T14:22:42.065Z,11.60
2019-02-19T14:25:36.558Z,12.00
2019-02-19T14:28:28.483Z,23.80
2019-02-19T14:31:30.141Z,22.50
2019-02-19T14:34:35.073Z,22.33
2019-02-19T14:37:36.633Z,17.63
2019-02-19T14:40:31.634Z,20.17
2019-02-19T14:43:35.440Z,13.57
2019-02-19T14:46:27.577Z,16.20
2019-02-19T14:49:36.610Z,17.03
2019-02-19T14:52:33.142Z,12.53
2019-02-19T14:55:24.991Z,13.10
2019-02-19T14:58:17.312Z,13.13
2019-02-19T15:01:06.473Z,11.20
2019-02-19T15:03:55.740Z,11.37
2019-02-19T15:06:56.993Z,10.43
2019-02-19T15:09:51.683Z,14.03
2019-02-19T15:12:41.055Z,13.40
2019-02-19T15:15:36.159Z,15.93
2019-02-19T15:18:37.409Z,12.07
2019-02-19T15:21:32.713Z,9.80
2019-02-19T15:24:21.471Z,8.93
2019-02-19T15:27:10.431Z,9.03
2019-02-19T15:29:59.497Z,9.87
2019-02-19T15:32:54.908Z,7.33
2019-02-19T15:35:53.387Z,9.17
2019-02-19T15:38:42.961Z,9.27
2019-02-19T15:41:34.587Z,10.33
2019-02-19T15:44:23.754Z,10.97
2019-02-19T15:47:12.513Z,10.93
2019-02-19T15:50:17.851Z,12.13
2019-02-19T15:53:09.677Z,11.00
2019-02-19T15:56:17.785Z,8.43
2019-02-19T15:59:06.649Z,9.73
2019-02-19T16:02:07.617Z,8.00
2019-02-19T16:04:59.621Z,11.67
2019-02-19T16:07:48.477Z,9.00
2019-02-19T16:10:37.537Z,9.80
2019-02-19T16:13:35.411Z,9.17
2019-02-19T16:16:24.495Z,8.87
2019-02-19T16:19:16.613Z,9.57
2019-02-19T16:22:08.238Z,8.43
2019-02-19T16:25:12.241Z,10.07
2019-02-19T16:28:19.533Z,7.77
2019-02-19T16:31:20.369Z,10.23
2019-02-19T16:34:27.043Z,9.60
2019-02-19T16:37:18.777Z,7.77
2019-02-19T16:40:20.837Z,9.57
2019-02-19T16:43:09.693Z,8.90
2019-02-19T16:45:58.862Z,8.07
2019-02-19T16:48:53.964Z,9.30
2019-02-19T16:51:55.319Z,10.13
2019-02-19T16:54:50.420Z,9.20
2019-02-19T16:57:57.605Z,9.40
2019-02-19T17:00:50.773Z,8.07
2019-02-19T17:03:48.536Z,10.33
2019-02-19T17:06:37.083Z,10.87
2019-02-19T17:09:43.045Z,9.73
2019-02-19T17:12:37.839Z,10.20
2019-02-19T17:15:30.174Z,8.40
2019-02-19T17:18:19.137Z,10.57
2019-02-19T17:21:10.965Z,11.50
2019-02-19T17:24:02.692Z,7.60
2019-02-19T17:26:54.317Z,10.33
2019-02-19T17:29:52.188Z,9.57
2019-02-19T17:32:46.894Z,9.80
2019-02-19T17:35:52.538Z,12.07
2019-02-19T17:38:41.486Z,8.23
2019-02-19T17:41:36.188Z,8.87
2019-02-19T17:44:28.232Z,9.20
2019-02-19T17:47:20.352Z,7.80
2019-02-19T17:50:14.125Z,9.73
2019-02-19T17:53:12.150Z,8.20
2019-02-19T17:56:03.713Z,9.57
2019-02-19T17:58:58.104Z,10.00
2019-02-19T18:01:58.689Z,9.77
2019-02-19T18:04:49.749Z,15.53
2019-02-19T18:07:41.069Z,11.27
2019-02-19T18:10:31.364Z,9.73
2019-02-19T18:13:21.299Z,10.90
2019-02-19T18:16:19.107Z,10.27
2019-02-19T18:19:07.964Z,11.73
2019-02-19T18:21:57.225Z,11.33
2019-02-19T18:24:44.752Z,10.20
2019-02-19T18:27:32.381Z,10.90
2019-02-19T18:30:20.119Z,10.33
2019-02-19T18:33:07.797Z,9.43
2019-02-19T18:35:55.579Z,10.30
2019-02-19T18:38:43.211Z,9.93
2019-02-19T18:41:30.939Z,12.57
2019-02-19T18:44:18.773Z,10.83
2019-02-19T18:47:06.206Z,10.07
2019-02-19T18:49:53.923Z,12.07
2019-02-19T18:52:41.245Z,13.13
2019-02-19T18:55:29.491Z,10.67
2019-02-19T18:58:16.913Z,10.70
2019-02-19T19:01:04.753Z,9.47
2019-02-19T19:03:52.069Z,10.10
2019-02-19T19:06:41.791Z,12.00
2019-02-19T19:09:29.272Z,11.00
2019-02-19T19:12:16.498Z,11.83
2019-02-19T19:15:06.107Z,10.67
2019-02-19T19:17:53.185Z,12.00
2019-02-19T19:20:40.402Z,12.37
2019-02-19T19:23:28.046Z,11.97
2019-02-19T19:26:15.455Z,11.70
2019-02-19T19:29:03.190Z,12.43
2019-02-19T19:31:50.818Z,10.87
2019-02-19T19:34:38.240Z,13.50
2019-02-19T19:37:25.362Z,12.90
2019-02-19T19:40:13.507Z,11.30
2019-02-19T19:43:00.934Z,11.93
2019-02-19T19:45:48.450Z,11.27
2019-02-19T19:48:35.875Z,11.60
2019-02-19T19:51:23.609Z,11.13
2019-02-19T19:54:11.548Z,10.97
2019-02-19T19:56:58.765Z,12.50
2019-02-19T19:59:46.189Z,13.60
2019-02-19T20:02:34.032Z,10.47
2019-02-19T20:05:21.545Z,11.73
2019-02-19T20:08:08.668Z,10.53
2019-02-19T20:10:56.189Z,11.63
2019-02-19T20:13:43.638Z,11.40
2019-02-19T20:16:31.151Z,10.53
2019-02-19T20:19:18.360Z,12.00
2019-02-19T20:22:07.426Z,12.73
2019-02-19T20:24:55.052Z,14.43
2019-02-19T20:27:42.066Z,12.17
2019-02-19T20:30:29.592Z,13.43
2019-02-19T20:33:17.323Z,14.53
2019-02-19T20:36:05.158Z,11.53
2019-02-19T20:38:52.894Z,10.37
2019-02-19T20:41:40.527Z,11.90
2019-02-19T20:44:28.248Z,11.80
2019-02-19T20:47:15.266Z,9.67
2019-02-19T20:50:02.789Z,9.27
2019-02-19T20:52:50.522Z,9.83
2019-02-19T20:55:39.711Z,11.53
2019-02-19T20:58:27.520Z,10.80
2019-02-19T21:01:14.640Z,10.93
2019-02-19T21:04:02.062Z,12.13
2019-02-19T21:06:49.389Z,11.00
2019-02-19T21:09:43.447Z,10.40
2019-02-19T21:12:25.361Z,12.47
2019-02-19T21:15:13.916Z,11.90
2019-02-19T21:18:01.541Z,10.97
2019-02-19T21:20:48.961Z,11.93
2019-02-19T21:23:36.798Z,9.17
2019-02-19T21:26:24.218Z,13.17
2019-02-19T21:29:11.746Z,10.63
2019-02-19T21:31:59.581Z,9.30
2019-02-19T21:34:47.312Z,10.53
2019-02-19T21:37:34.838Z,9.70
2019-02-19T21:40:22.362Z,13.70
2019-02-19T21:43:09.584Z,13.13
2019-02-19T21:45:56.905Z,9.57
2019-02-19T21:48:48.238Z,9.27
2019-02-19T21:51:33.448Z,9.53
2019-02-19T21:54:20.922Z,11.23
2019-02-19T21:57:08.033Z,9.87
2019-02-19T21:59:55.357Z,9.77
2019-02-19T22:02:42.884Z,11.50
2019-02-19T22:05:30.205Z,10.60
2019-02-19T22:08:18.140Z,12.03
2019-02-19T22:11:05.461Z,12.60
2019-02-19T22:13:52.477Z,10.93
2019-02-19T22:16:39.798Z,12.80
2019-02-19T22:19:27.349Z,10.07
2019-02-19T22:22:14.879Z,12.93
2019-02-19T22:25:02.279Z,9.93
2019-02-19T22:27:49.497Z,11.73
2019-02-19T22:30:36.817Z,11.40
2019-02-19T22:33:24.445Z,10.27
2019-02-19T22:36:11.462Z,8.87
2019-02-19T22:38:59.195Z,10.73
2019-02-19T22:41:46.517Z,10.50
2019-02-19T22:44:34.043Z,10.37
2019-02-19T22:47:21.465Z,12.23
2019-02-19T22:50:09.859Z,9.53
2019-02-19T22:52:57.850Z,11.33
2019-02-19T22:55:52.751Z,12.50
2019-02-19T22:58:40.479Z,10.20
2019-02-19T23:01:29.439Z,9.00
2019-02-19T23:04:17.180Z,13.83
2019-02-19T23:07:04.492Z,11.10
2019-02-19T23:09:51.813Z,12.43
2019-02-19T23:12:39.180Z,9.53
2019-02-19T23:15:26.968Z,9.70
2019-02-19T23:18:14.089Z,9.30
2019-02-19T23:21:01.616Z,11.00
2019-02-19T23:23:49.343Z,9.33
2019-02-19T23:26:36.667Z,8.87
2019-02-19T23:29:24.092Z,12.07
2019-02-19T23:32:11.411Z,9.43
2019-02-19T23:35:00.579Z,10.07
2019-02-19T23:37:48.105Z,9.30
2019-02-19T23:40:35.940Z,11.27
2019-02-19T23:43:23.373Z,11.90
2019-02-19T23:46:10.378Z,12.37
2019-02-19T23:48:57.911Z,11.43
2019-02-19T23:51:45.122Z,10.47
2019-02-19T23:54:32.960Z,11.10
2019-02-19T23:57:20.081Z,12.77
